Terminal Aerodrome Forecast
Issued by NWS St Louis, MO

Home | Current Version | Previous Version | Graphics & Text | Print | Product List | Glossary On
Versions: 1 2 3 4 5 6 7 8 9 10 11 12 13 14 15 16 17 18 19 20 21 22 23 24 25 26
000
FTUS43 KLSX 242000 AAA
TAFSTL
TAF AMD
KSTL 242034Z 2421/2524 29012KT 4SM -RA BR OVC015
      TEMPO 2421/2424 P6SM -RA SCT015 OVC024
     FM250600 25006KT P6SM OVC022
     FM251300 19010KT P6SM BKN250=

USA.gov is the U.S. government's official web portal to all federal, state and local government web resources and services.